sensor_id;sensor_type;location;lat;lon;timestamp;P1;durP1;ratioP1;P2;durP2;ratioP2
40176;SDS011;31511;46.176;9.874;2022-10-31T00:01:11;7.93;;;2.85;;
40176;SDS011;31511;46.176;9.874;2022-10-31T00:03:38;8.80;;;3.63;;
40176;SDS011;31511;46.176;9.874;2022-10-31T00:06:04;9.80;;;3.70;;
40176;SDS011;31511;46.176;9.874;2022-10-31T00:08:31;17.05;;;4.32;;
40176;SDS011;31511;46.176;9.874;2022-10-31T00:10:57;9.30;;;2.85;;
40176;SDS011;31511;46.176;9.874;2022-10-31T00:13:24;9.20;;;3.50;;
40176;SDS011;31511;46.176;9.874;2022-10-31T00:15:52;10.05;;;3.92;;
40176;SDS011;31511;46.176;9.874;2022-10-31T00:18:20;15.73;;;3.65;;
40176;SDS011;31511;46.176;9.874;2022-10-31T00:20:47;11.35;;;3.45;;
40176;SDS011;31511;46.176;9.874;2022-10-31T00:23:13;7.93;;;3.25;;
40176;SDS011;31511;46.176;9.874;2022-10-31T00:25:40;11.18;;;3.50;;
40176;SDS011;31511;46.176;9.874;2022-10-31T00:28:07;11.45;;;3.53;;
40176;SDS011;31511;46.176;9.874;2022-10-31T00:30:35;8.93;;;3.15;;
40176;SDS011;31511;46.176;9.874;2022-10-31T00:33:02;5.82;;;2.92;;
40176;SDS011;31511;46.176;9.874;2022-10-31T00:35:30;9.18;;;4.00;;
40176;SDS011;31511;46.176;9.874;2022-10-31T00:37:56;7.90;;;3.50;;
40176;SDS011;31511;46.176;9.874;2022-10-31T00:40:23;9.63;;;3.53;;
40176;SDS011;31511;46.176;9.874;2022-10-31T00:42:52;6.18;;;3.00;;
40176;SDS011;31511;46.176;9.874;2022-10-31T00:45:19;9.05;;;5.00;;
40176;SDS011;31511;46.176;9.874;2022-10-31T00:47:47;6.75;;;2.95;;
40176;SDS011;31511;46.176;9.874;2022-10-31T00:50:13;14.25;;;4.20;;
40176;SDS011;31511;46.176;9.874;2022-10-31T00:52:39;10.10;;;2.78;;
40176;SDS011;31511;46.176;9.874;2022-10-31T00:55:05;9.13;;;3.10;;
40176;SDS011;31511;46.176;9.874;2022-10-31T00:57:31;8.07;;;3.47;;
40176;SDS011;31511;46.176;9.874;2022-10-31T00:59:57;10.02;;;3.42;;
40176;SDS011;31511;46.176;9.874;2022-10-31T01:02:25;6.47;;;3.22;;
40176;SDS011;31511;46.176;9.874;2022-10-31T01:04:53;6.53;;;3.40;;
40176;SDS011;31511;46.176;9.874;2022-10-31T01:07:20;8.90;;;3.17;;
40176;SDS011;31511;46.176;9.874;2022-10-31T01:09:48;10.05;;;3.25;;
40176;SDS011;31511;46.176;9.874;2022-10-31T01:12:14;11.60;;;2.95;;
40176;SDS011;31511;46.176;9.874;2022-10-31T01:14:43;14.70;;;5.10;;
40176;SDS011;31511;46.176;9.874;2022-10-31T01:17:10;11.35;;;4.90;;
40176;SDS011;31511;46.176;9.874;2022-10-31T01:19:36;12.10;;;3.45;;
40176;SDS011;31511;46.176;9.874;2022-10-31T01:22:02;12.45;;;2.85;;
40176;SDS011;31511;46.176;9.874;2022-10-31T01:24:29;8.15;;;2.95;;
40176;SDS011;31511;46.176;9.874;2022-10-31T01:26:55;6.20;;;2.50;;
40176;SDS011;31511;46.176;9.874;2022-10-31T01:29:23;13.93;;;3.17;;
40176;SDS011;31511;46.176;9.874;2022-10-31T01:31:51;10.13;;;2.97;;
40176;SDS011;31511;46.176;9.874;2022-10-31T01:34:17;12.50;;;3.05;;
40176;SDS011;31511;46.176;9.874;2022-10-31T01:36:45;12.10;;;4.00;;
40176;SDS011;31511;46.176;9.874;2022-10-31T01:39:16;6.57;;;2.70;;
40176;SDS011;31511;46.176;9.874;2022-10-31T01:41:44;9.20;;;2.90;;
40176;SDS011;31511;46.176;9.874;2022-10-31T01:52:01;11.93;;;2.85;;
40176;SDS011;31511;46.176;9.874;2022-10-31T01:54:31;13.40;;;3.30;;
40176;SDS011;31511;46.176;9.874;2022-10-31T01:56:59;7.55;;;2.20;;
40176;SDS011;31511;46.176;9.874;2022-10-31T01:59:29;9.68;;;3.60;;
40176;SDS011;31511;46.176;9.874;2022-10-31T02:01:56;9.15;;;3.55;;
40176;SDS011;31511;46.176;9.874;2022-10-31T02:04:23;5.78;;;2.70;;
40176;SDS011;31511;46.176;9.874;2022-10-31T02:06:58;8.98;;;3.17;;
40176;SDS011;31511;46.176;9.874;2022-10-31T02:09:26;8.60;;;3.15;;
40176;SDS011;31511;46.176;9.874;2022-10-31T02:11:55;11.55;;;2.97;;
40176;SDS011;31511;46.176;9.874;2022-10-31T02:14:25;10.82;;;3.67;;
40176;SDS011;31511;46.176;9.874;2022-10-31T02:16:54;7.22;;;2.53;;
40176;SDS011;31511;46.176;9.874;2022-10-31T02:22:10;7.53;;;2.97;;
40176;SDS011;31511;46.176;9.874;2022-10-31T02:30:11;9.65;;;4.07;;
40176;SDS011;31511;46.176;9.874;2022-10-31T02:43:21;10.77;;;3.65;;
40176;SDS011;31511;46.176;9.874;2022-10-31T02:46:01;10.48;;;2.83;;
40176;SDS011;31511;46.176;9.874;2022-10-31T02:48:28;15.13;;;3.25;;
40176;SDS011;31511;46.176;9.874;2022-10-31T02:50:57;11.40;;;3.00;;
40176;SDS011;31511;46.176;9.874;2022-10-31T02:53:25;8.52;;;2.80;;
40176;SDS011;31511;46.176;9.874;2022-10-31T02:55:58;8.48;;;3.08;;
40176;SDS011;31511;46.176;9.874;2022-10-31T02:58:27;10.45;;;3.65;;
40176;SDS011;31511;46.176;9.874;2022-10-31T03:06:17;9.60;;;2.67;;
40176;SDS011;31511;46.176;9.874;2022-10-31T03:11:29;5.78;;;2.50;;
40176;SDS011;31511;46.176;9.874;2022-10-31T03:13:58;9.38;;;3.45;;
40176;SDS011;31511;46.176;9.874;2022-10-31T03:19:12;7.50;;;2.78;;
40176;SDS011;31511;46.176;9.874;2022-10-31T03:21:46;6.53;;;2.70;;
40176;SDS011;31511;46.176;9.874;2022-10-31T03:24:13;6.80;;;2.85;;
40176;SDS011;31511;46.176;9.874;2022-10-31T03:26:44;8.98;;;4.07;;
40176;SDS011;31511;46.176;9.874;2022-10-31T03:29:12;14.68;;;4.15;;
40176;SDS011;31511;46.176;9.874;2022-10-31T03:31:44;8.40;;;3.10;;
40176;SDS011;31511;46.176;9.874;2022-10-31T03:34:11;8.25;;;2.88;;
40176;SDS011;31511;46.176;9.874;2022-10-31T03:36:38;6.70;;;3.22;;
40176;SDS011;31511;46.176;9.874;2022-10-31T03:39:05;7.90;;;1.83;;
40176;SDS011;31511;46.176;9.874;2022-10-31T03:41:35;7.45;;;3.17;;
40176;SDS011;31511;46.176;9.874;2022-10-31T03:44:05;6.88;;;2.53;;
40176;SDS011;31511;46.176;9.874;2022-10-31T03:46:32;10.27;;;2.92;;
40176;SDS011;31511;46.176;9.874;2022-10-31T03:48:58;7.50;;;2.40;;
40176;SDS011;31511;46.176;9.874;2022-10-31T03:51:29;6.57;;;2.90;;
40176;SDS011;31511;46.176;9.874;2022-10-31T03:54:01;12.07;;;3.67;;
40176;SDS011;31511;46.176;9.874;2022-10-31T03:56:36;14.23;;;4.07;;
40176;SDS011;31511;46.176;9.874;2022-10-31T03:59:11;8.70;;;2.42;;
40176;SDS011;31511;46.176;9.874;2022-10-31T04:01:41;11.45;;;2.72;;
40176;SDS011;31511;46.176;9.874;2022-10-31T04:04:09;9.40;;;3.17;;
40176;SDS011;31511;46.176;9.874;2022-10-31T04:06:36;7.07;;;2.63;;
40176;SDS011;31511;46.176;9.874;2022-10-31T04:09:03;7.50;;;2.92;;
40176;SDS011;31511;46.176;9.874;2022-10-31T04:11:34;12.00;;;3.38;;
40176;SDS011;31511;46.176;9.874;2022-10-31T04:14:01;10.82;;;2.72;;
40176;SDS011;31511;46.176;9.874;2022-10-31T04:16:29;7.78;;;2.35;;
40176;SDS011;31511;46.176;9.874;2022-10-31T04:18:56;9.10;;;2.55;;
40176;SDS011;31511;46.176;9.874;2022-10-31T04:21:29;11.90;;;3.33;;
40176;SDS011;31511;46.176;9.874;2022-10-31T04:23:56;5.28;;;2.55;;
40176;SDS011;31511;46.176;9.874;2022-10-31T04:26:23;6.93;;;3.28;;
40176;SDS011;31511;46.176;9.874;2022-10-31T04:28:52;16.33;;;3.03;;
40176;SDS011;31511;46.176;9.874;2022-10-31T04:31:19;8.30;;;2.38;;
40176;SDS011;31511;46.176;9.874;2022-10-31T04:33:47;7.32;;;3.17;;
40176;SDS011;31511;46.176;9.874;2022-10-31T04:36:13;9.95;;;2.85;;
40176;SDS011;31511;46.176;9.874;2022-10-31T04:38:39;6.63;;;2.38;;
40176;SDS011;31511;46.176;9.874;2022-10-31T04:41:05;11.23;;;2.55;;
40176;SDS011;31511;46.176;9.874;2022-10-31T04:43:31;8.55;;;2.03;;
40176;SDS011;31511;46.176;9.874;2022-10-31T04:45:57;7.40;;;2.58;;
40176;SDS011;31511;46.176;9.874;2022-10-31T04:48:24;6.88;;;2.08;;
40176;SDS011;31511;46.176;9.874;2022-10-31T04:50:57;5.43;;;1.90;;
40176;SDS011;31511;46.176;9.874;2022-10-31T04:53:25;4.10;;;2.28;;
40176;SDS011;31511;46.176;9.874;2022-10-31T04:55:54;9.27;;;2.67;;
40176;SDS011;31511;46.176;9.874;2022-10-31T04:58:21;9.05;;;3.25;;
40176;SDS011;31511;46.176;9.874;2022-10-31T05:00:52;8.90;;;3.88;;
40176;SDS011;31511;46.176;9.874;2022-10-31T05:03:19;7.88;;;2.40;;
40176;SDS011;31511;46.176;9.874;2022-10-31T05:05:47;8.95;;;2.72;;
40176;SDS011;31511;46.176;9.874;2022-10-31T05:08:14;6.70;;;1.75;;
40176;SDS011;31511;46.176;9.874;2022-10-31T05:10:40;13.15;;;2.05;;
40176;SDS011;31511;46.176;9.874;2022-10-31T05:13:06;8.32;;;3.55;;
40176;SDS011;31511;46.176;9.874;2022-10-31T05:15:33;9.75;;;2.58;;
40176;SDS011;31511;46.176;9.874;2022-10-31T05:17:59;5.65;;;2.05;;
40176;SDS011;31511;46.176;9.874;2022-10-31T05:20:27;9.23;;;2.08;;
40176;SDS011;31511;46.176;9.874;2022-10-31T05:22:55;10.05;;;2.53;;
40176;SDS011;31511;46.176;9.874;2022-10-31T05:25:25;5.63;;;2.08;;
40176;SDS011;31511;46.176;9.874;2022-10-31T05:27:53;8.30;;;3.58;;
40176;SDS011;31511;46.176;9.874;2022-10-31T05:30:24;9.37;;;2.97;;
40176;SDS011;31511;46.176;9.874;2022-10-31T05:32:51;6.32;;;2.20;;
40176;SDS011;31511;46.176;9.874;2022-10-31T05:35:18;6.57;;;2.20;;
40176;SDS011;31511;46.176;9.874;2022-10-31T05:37:46;11.60;;;2.72;;
40176;SDS011;31511;46.176;9.874;2022-10-31T05:40:13;8.10;;;2.58;;
40176;SDS011;31511;46.176;9.874;2022-10-31T05:42:39;8.10;;;2.47;;
40176;SDS011;31511;46.176;9.874;2022-10-31T05:45:07;6.40;;;1.92;;
40176;SDS011;31511;46.176;9.874;2022-10-31T05:47:33;9.55;;;3.55;;
40176;SDS011;31511;46.176;9.874;2022-10-31T05:49:59;7.10;;;2.60;;
40176;SDS011;31511;46.176;9.874;2022-10-31T05:52:27;8.27;;;2.22;;
40176;SDS011;31511;46.176;9.874;2022-10-31T05:54:55;13.38;;;4.40;;
40176;SDS011;31511;46.176;9.874;2022-10-31T05:57:22;7.47;;;2.70;;
40176;SDS011;31511;46.176;9.874;2022-10-31T05:59:50;9.38;;;2.90;;
40176;SDS011;31511;46.176;9.874;2022-10-31T06:02:21;7.75;;;2.13;;
40176;SDS011;31511;46.176;9.874;2022-10-31T06:04:49;5.72;;;2.20;;
40176;SDS011;31511;46.176;9.874;2022-10-31T06:07:15;7.57;;;2.30;;
40176;SDS011;31511;46.176;9.874;2022-10-31T06:09:41;5.28;;;2.35;;
40176;SDS011;31511;46.176;9.874;2022-10-31T06:12:07;8.45;;;2.83;;
40176;SDS011;31511;46.176;9.874;2022-10-31T06:14:34;10.10;;;3.08;;
40176;SDS011;31511;46.176;9.874;2022-10-31T06:17:00;10.40;;;2.42;;
40176;SDS011;31511;46.176;9.874;2022-10-31T06:19:28;9.38;;;3.13;;
40176;SDS011;31511;46.176;9.874;2022-10-31T06:21:56;9.98;;;2.38;;
40176;SDS011;31511;46.176;9.874;2022-10-31T06:24:23;8.55;;;2.17;;
40176;SDS011;31511;46.176;9.874;2022-10-31T06:26:52;9.52;;;2.03;;
40176;SDS011;31511;46.176;9.874;2022-10-31T06:29:18;9.35;;;2.97;;
40176;SDS011;31511;46.176;9.874;2022-10-31T06:31:45;8.20;;;2.25;;
40176;SDS011;31511;46.176;9.874;2022-10-31T06:34:11;10.75;;;2.25;;
40176;SDS011;31511;46.176;9.874;2022-10-31T06:36:38;6.35;;;2.10;;
40176;SDS011;31511;46.176;9.874;2022-10-31T06:39:04;8.02;;;2.50;;
40176;SDS011;31511;46.176;9.874;2022-10-31T06:41:30;8.70;;;2.60;;
40176;SDS011;31511;46.176;9.874;2022-10-31T06:43:56;8.77;;;2.72;;
40176;SDS011;31511;46.176;9.874;2022-10-31T06:46:23;5.90;;;2.35;;
40176;SDS011;31511;46.176;9.874;2022-10-31T06:48:51;9.60;;;2.95;;
40176;SDS011;31511;46.176;9.874;2022-10-31T06:51:18;8.55;;;2.83;;
40176;SDS011;31511;46.176;9.874;2022-10-31T06:53:44;8.05;;;3.13;;
40176;SDS011;31511;46.176;9.874;2022-10-31T06:56:10;6.35;;;2.72;;
40176;SDS011;31511;46.176;9.874;2022-10-31T06:58:36;6.30;;;2.20;;
40176;SDS011;31511;46.176;9.874;2022-10-31T07:01:02;7.43;;;2.65;;
40176;SDS011;31511;46.176;9.874;2022-10-31T07:03:29;6.32;;;3.20;;
40176;SDS011;31511;46.176;9.874;2022-10-31T07:05:55;11.73;;;4.35;;
40176;SDS011;31511;46.176;9.874;2022-10-31T07:08:23;20.25;;;5.25;;
40176;SDS011;31511;46.176;9.874;2022-10-31T07:10:52;5.30;;;2.10;;
40176;SDS011;31511;46.176;9.874;2022-10-31T07:13:20;5.40;;;2.50;;
40176;SDS011;31511;46.176;9.874;2022-10-31T07:15:52;8.40;;;2.47;;
40176;SDS011;31511;46.176;9.874;2022-10-31T07:18:20;8.48;;;3.00;;
40176;SDS011;31511;46.176;9.874;2022-10-31T07:20:48;12.20;;;3.55;;
40176;SDS011;31511;46.176;9.874;2022-10-31T07:23:14;7.20;;;2.17;;
40176;SDS011;31511;46.176;9.874;2022-10-31T07:25:40;6.65;;;2.67;;
40176;SDS011;31511;46.176;9.874;2022-10-31T07:28:07;14.90;;;3.72;;
40176;SDS011;31511;46.176;9.874;2022-10-31T07:30:33;12.38;;;2.88;;
40176;SDS011;31511;46.176;9.874;2022-10-31T07:33:00;9.93;;;3.58;;
40176;SDS011;31511;46.176;9.874;2022-10-31T07:35:28;7.05;;;3.00;;
40176;SDS011;31511;46.176;9.874;2022-10-31T07:37:56;7.90;;;3.28;;
40176;SDS011;31511;46.176;9.874;2022-10-31T07:40:24;7.68;;;2.72;;
40176;SDS011;31511;46.176;9.874;2022-10-31T07:42:52;11.82;;;3.53;;
40176;SDS011;31511;46.176;9.874;2022-10-31T07:45:20;6.00;;;3.30;;
40176;SDS011;31511;46.176;9.874;2022-10-31T07:47:49;12.27;;;3.85;;
40176;SDS011;31511;46.176;9.874;2022-10-31T07:50:20;10.93;;;3.88;;
40176;SDS011;31511;46.176;9.874;2022-10-31T07:52:47;8.80;;;3.55;;
40176;SDS011;31511;46.176;9.874;2022-10-31T07:55:14;7.80;;;2.58;;
40176;SDS011;31511;46.176;9.874;2022-10-31T07:57:40;5.28;;;2.33;;
40176;SDS011;31511;46.176;9.874;2022-10-31T08:00:07;7.55;;;2.67;;
40176;SDS011;31511;46.176;9.874;2022-10-31T08:02:34;16.63;;;4.80;;
40176;SDS011;31511;46.176;9.874;2022-10-31T08:05:00;17.20;;;8.13;;
40176;SDS011;31511;46.176;9.874;2022-10-31T08:07:35;16.85;;;6.00;;
40176;SDS011;31511;46.176;9.874;2022-10-31T08:10:01;13.02;;;4.68;;
40176;SDS011;31511;46.176;9.874;2022-10-31T08:12:29;15.25;;;7.90;;
40176;SDS011;31511;46.176;9.874;2022-10-31T08:14:58;14.07;;;6.20;;
40176;SDS011;31511;46.176;9.874;2022-10-31T08:17:27;14.65;;;7.07;;
40176;SDS011;31511;46.176;9.874;2022-10-31T08:19:56;10.40;;;4.82;;
40176;SDS011;31511;46.176;9.874;2022-10-31T08:22:25;14.15;;;5.47;;
40176;SDS011;31511;46.176;9.874;2022-10-31T08:24:53;11.85;;;4.25;;
40176;SDS011;31511;46.176;9.874;2022-10-31T08:27:22;12.07;;;3.83;;
40176;SDS011;31511;46.176;9.874;2022-10-31T08:29:52;17.67;;;4.43;;
40176;SDS011;31511;46.176;9.874;2022-10-31T08:32:20;8.05;;;3.55;;
40176;SDS011;31511;46.176;9.874;2022-10-31T08:34:49;8.38;;;3.88;;
40176;SDS011;31511;46.176;9.874;2022-10-31T08:37:18;8.45;;;3.53;;
40176;SDS011;31511;46.176;9.874;2022-10-31T08:39:46;9.60;;;3.72;;
40176;SDS011;31511;46.176;9.874;2022-10-31T08:42:15;9.05;;;2.63;;
40176;SDS011;31511;46.176;9.874;2022-10-31T08:44:43;11.18;;;4.57;;
40176;SDS011;31511;46.176;9.874;2022-10-31T08:47:11;10.05;;;3.22;;
40176;SDS011;31511;46.176;9.874;2022-10-31T08:49:38;14.65;;;3.42;;
40176;SDS011;31511;46.176;9.874;2022-10-31T08:52:04;17.77;;;4.95;;
40176;SDS011;31511;46.176;9.874;2022-10-31T08:54:31;10.30;;;3.00;;
40176;SDS011;31511;46.176;9.874;2022-10-31T08:57:00;8.30;;;3.22;;
40176;SDS011;31511;46.176;9.874;2022-10-31T08:59:29;9.70;;;3.47;;
40176;SDS011;31511;46.176;9.874;2022-10-31T09:01:58;9.98;;;3.78;;
40176;SDS011;31511;46.176;9.874;2022-10-31T09:04:26;8.05;;;3.92;;
40176;SDS011;31511;46.176;9.874;2022-10-31T09:06:55;14.32;;;3.63;;
40176;SDS011;31511;46.176;9.874;2022-10-31T09:09:24;10.30;;;4.20;;
40176;SDS011;31511;46.176;9.874;2022-10-31T09:11:53;8.98;;;4.15;;
40176;SDS011;31511;46.176;9.874;2022-10-31T09:14:21;8.43;;;3.42;;
40176;SDS011;31511;46.176;9.874;2022-10-31T09:16:50;9.18;;;3.50;;
40176;SDS011;31511;46.176;9.874;2022-10-31T09:19:18;10.68;;;3.30;;
40176;SDS011;31511;46.176;9.874;2022-10-31T09:21:47;7.75;;;3.10;;
40176;SDS011;31511;46.176;9.874;2022-10-31T09:24:16;7.45;;;2.47;;
40176;SDS011;31511;46.176;9.874;2022-10-31T09:26:44;10.82;;;2.20;;
40176;SDS011;31511;46.176;9.874;2022-10-31T09:29:11;17.60;;;3.33;;
40176;SDS011;31511;46.176;9.874;2022-10-31T09:31:38;7.68;;;2.55;;
40176;SDS011;31511;46.176;9.874;2022-10-31T09:34:04;10.65;;;5.10;;
40176;SDS011;31511;46.176;9.874;2022-10-31T09:36:30;10.10;;;3.50;;
40176;SDS011;31511;46.176;9.874;2022-10-31T09:38:56;6.70;;;3.42;;
40176;SDS011;31511;46.176;9.874;2022-10-31T09:41:26;12.80;;;2.85;;
40176;SDS011;31511;46.176;9.874;2022-10-31T09:44:07;5.85;;;2.40;;
40176;SDS011;31511;46.176;9.874;2022-10-31T09:51:32;12.27;;;3.70;;
40176;SDS011;31511;46.176;9.874;2022-10-31T09:56:26;7.05;;;3.40;;
40176;SDS011;31511;46.176;9.874;2022-10-31T09:58:56;8.27;;;3.50;;
40176;SDS011;31511;46.176;9.874;2022-10-31T10:01:38;14.05;;;3.55;;
40176;SDS011;31511;46.176;9.874;2022-10-31T10:06:39;9.07;;;3.60;;
40176;SDS011;31511;46.176;9.874;2022-10-31T10:09:08;10.25;;;3.78;;
40176;SDS011;31511;46.176;9.874;2022-10-31T10:11:43;7.35;;;3.20;;
40176;SDS011;31511;46.176;9.874;2022-10-31T10:22:31;7.50;;;3.03;;
40176;SDS011;31511;46.176;9.874;2022-10-31T10:25:07;9.93;;;4.55;;
40176;SDS011;31511;46.176;9.874;2022-10-31T10:30:13;7.75;;;2.80;;
40176;SDS011;31511;46.176;9.874;2022-10-31T10:32:43;10.23;;;3.10;;
40176;SDS011;31511;46.176;9.874;2022-10-31T10:37:41;7.50;;;2.50;;
40176;SDS011;31511;46.176;9.874;2022-10-31T10:40:13;7.25;;;2.83;;
40176;SDS011;31511;46.176;9.874;2022-10-31T10:42:43;7.07;;;2.60;;
40176;SDS011;31511;46.176;9.874;2022-10-31T10:45:30;8.32;;;3.03;;
40176;SDS011;31511;46.176;9.874;2022-10-31T10:48:19;9.52;;;3.35;;
40176;SDS011;31511;46.176;9.874;2022-10-31T10:50:51;6.05;;;2.38;;
40176;SDS011;31511;46.176;9.874;2022-10-31T10:53:33;12.95;;;3.40;;
40176;SDS011;31511;46.176;9.874;2022-10-31T10:56:16;6.07;;;2.25;;
40176;SDS011;31511;46.176;9.874;2022-10-31T10:58:48;10.60;;;3.03;;
40176;SDS011;31511;46.176;9.874;2022-10-31T11:01:15;6.68;;;2.75;;
40176;SDS011;31511;46.176;9.874;2022-10-31T11:03:42;6.45;;;2.97;;
40176;SDS011;31511;46.176;9.874;2022-10-31T11:06:18;15.07;;;3.70;;
40176;SDS011;31511;46.176;9.874;2022-10-31T11:08:48;6.95;;;2.75;;
40176;SDS011;31511;46.176;9.874;2022-10-31T11:11:22;6.78;;;2.30;;
40176;SDS011;31511;46.176;9.874;2022-10-31T11:13:52;6.75;;;1.98;;
40176;SDS011;31511;46.176;9.874;2022-10-31T11:16:32;5.70;;;2.33;;
40176;SDS011;31511;46.176;9.874;2022-10-31T11:21:45;7.75;;;1.92;;
40176;SDS011;31511;46.176;9.874;2022-10-31T11:24:16;10.73;;;3.03;;
40176;SDS011;31511;46.176;9.874;2022-10-31T11:26:43;7.70;;;2.50;;
40176;SDS011;31511;46.176;9.874;2022-10-31T11:29:20;6.80;;;2.50;;
40176;SDS011;31511;46.176;9.874;2022-10-31T11:31:53;5.93;;;2.25;;
40176;SDS011;31511;46.176;9.874;2022-10-31T11:34:31;10.55;;;2.47;;
40176;SDS011;31511;46.176;9.874;2022-10-31T11:37:03;6.53;;;2.25;;
40176;SDS011;31511;46.176;9.874;2022-10-31T11:39:30;6.43;;;2.30;;
40176;SDS011;31511;46.176;9.874;2022-10-31T11:41:59;8.90;;;2.10;;
40176;SDS011;31511;46.176;9.874;2022-10-31T11:44:27;6.28;;;1.98;;
40176;SDS011;31511;46.176;9.874;2022-10-31T11:46:56;11.52;;;2.75;;
40176;SDS011;31511;46.176;9.874;2022-10-31T11:49:45;7.45;;;2.75;;
40176;SDS011;31511;46.176;9.874;2022-10-31T11:52:19;10.25;;;2.47;;
40176;SDS011;31511;46.176;9.874;2022-10-31T11:54:49;7.35;;;2.22;;
40176;SDS011;31511;46.176;9.874;2022-10-31T11:59:58;8.68;;;2.65;;
40176;SDS011;31511;46.176;9.874;2022-10-31T12:02:26;11.05;;;3.13;;
40176;SDS011;31511;46.176;9.874;2022-10-31T12:05:06;10.57;;;2.58;;
40176;SDS011;31511;46.176;9.874;2022-10-31T12:07:34;5.95;;;2.60;;
40176;SDS011;31511;46.176;9.874;2022-10-31T12:10:00;5.40;;;2.08;;
40176;SDS011;31511;46.176;9.874;2022-10-31T12:25:35;6.75;;;2.15;;
40176;SDS011;31511;46.176;9.874;2022-10-31T12:35:38;9.60;;;2.40;;
40176;SDS011;31511;46.176;9.874;2022-10-31T12:43:52;9.82;;;2.97;;
40176;SDS011;31511;46.176;9.874;2022-10-31T12:56:50;10.82;;;3.78;;
40176;SDS011;31511;46.176;9.874;2022-10-31T12:59:21;10.80;;;4.13;;
40176;SDS011;31511;46.176;9.874;2022-10-31T13:06:59;8.48;;;3.08;;
40176;SDS011;31511;46.176;9.874;2022-10-31T13:09:31;11.07;;;3.17;;
40176;SDS011;31511;46.176;9.874;2022-10-31T13:12:03;11.40;;;3.40;;
40176;SDS011;31511;46.176;9.874;2022-10-31T13:15:13;7.43;;;2.83;;
40176;SDS011;31511;46.176;9.874;2022-10-31T13:19:48;6.25;;;2.58;;
40176;SDS011;31511;46.176;9.874;2022-10-31T13:22:23;10.10;;;2.95;;
40176;SDS011;31511;46.176;9.874;2022-10-31T13:24:54;9.77;;;2.85;;
40176;SDS011;31511;46.176;9.874;2022-10-31T13:27:26;7.22;;;2.85;;
40176;SDS011;31511;46.176;9.874;2022-10-31T13:30:01;10.82;;;2.45;;
40176;SDS011;31511;46.176;9.874;2022-10-31T13:32:36;10.50;;;2.80;;
40176;SDS011;31511;46.176;9.874;2022-10-31T13:35:03;11.25;;;2.85;;
40176;SDS011;31511;46.176;9.874;2022-10-31T13:42:49;8.25;;;2.85;;
40176;SDS011;31511;46.176;9.874;2022-10-31T13:45:18;9.38;;;3.35;;
40176;SDS011;31511;46.176;9.874;2022-10-31T13:48:17;8.07;;;3.00;;
40176;SDS011;31511;46.176;9.874;2022-10-31T13:50:55;8.27;;;2.28;;
40176;SDS011;31511;46.176;9.874;2022-10-31T13:53:22;7.28;;;2.83;;
40176;SDS011;31511;46.176;9.874;2022-10-31T13:58:36;12.90;;;3.72;;
40176;SDS011;31511;46.176;9.874;2022-10-31T14:03:33;7.75;;;2.30;;
40176;SDS011;31511;46.176;9.874;2022-10-31T14:06:01;10.95;;;2.75;;
40176;SDS011;31511;46.176;9.874;2022-10-31T14:08:29;14.15;;;2.67;;
40176;SDS011;31511;46.176;9.874;2022-10-31T14:10:57;8.73;;;2.60;;
40176;SDS011;31511;46.176;9.874;2022-10-31T14:13:45;16.25;;;3.13;;
40176;SDS011;31511;46.176;9.874;2022-10-31T14:18:57;7.88;;;2.63;;
40176;SDS011;31511;46.176;9.874;2022-10-31T14:21:26;9.75;;;2.75;;
40176;SDS011;31511;46.176;9.874;2022-10-31T14:23:55;11.15;;;2.53;;
40176;SDS011;31511;46.176;9.874;2022-10-31T14:28:56;7.38;;;3.17;;
40176;SDS011;31511;46.176;9.874;2022-10-31T14:31:32;10.32;;;2.80;;
40176;SDS011;31511;46.176;9.874;2022-10-31T14:34:01;10.65;;;2.75;;
40176;SDS011;31511;46.176;9.874;2022-10-31T14:39:29;12.98;;;3.28;;
40176;SDS011;31511;46.176;9.874;2022-10-31T14:42:10;10.55;;;2.95;;
40176;SDS011;31511;46.176;9.874;2022-10-31T14:53:06;9.98;;;3.15;;
40176;SDS011;31511;46.176;9.874;2022-10-31T14:55:36;14.57;;;3.53;;
40176;SDS011;31511;46.176;9.874;2022-10-31T14:58:06;10.00;;;2.65;;
40176;SDS011;31511;46.176;9.874;2022-10-31T15:00:33;9.43;;;3.38;;
40176;SDS011;31511;46.176;9.874;2022-10-31T15:05:56;12.05;;;3.45;;
40176;SDS011;31511;46.176;9.874;2022-10-31T15:10:55;9.55;;;4.13;;
40176;SDS011;31511;46.176;9.874;2022-10-31T15:13:23;12.48;;;3.88;;
40176;SDS011;31511;46.176;9.874;2022-10-31T15:15:51;12.52;;;4.57;;
40176;SDS011;31511;46.176;9.874;2022-10-31T15:18:24;9.85;;;2.95;;
40176;SDS011;31511;46.176;9.874;2022-10-31T15:20:54;15.25;;;3.40;;
40176;SDS011;31511;46.176;9.874;2022-10-31T15:23:23;24.30;;;4.07;;
40176;SDS011;31511;46.176;9.874;2022-10-31T15:25:57;15.80;;;3.95;;
40176;SDS011;31511;46.176;9.874;2022-10-31T15:28:25;13.35;;;3.70;;
40176;SDS011;31511;46.176;9.874;2022-10-31T15:30:57;10.57;;;4.10;;
40176;SDS011;31511;46.176;9.874;2022-10-31T15:33:26;11.13;;;4.25;;
40176;SDS011;31511;46.176;9.874;2022-10-31T15:35:59;9.15;;;3.95;;
40176;SDS011;31511;46.176;9.874;2022-10-31T15:38:27;12.90;;;3.58;;
40176;SDS011;31511;46.176;9.874;2022-10-31T15:40:56;6.43;;;3.13;;
40176;SDS011;31511;46.176;9.874;2022-10-31T15:43:25;13.07;;;4.47;;
40176;SDS011;31511;46.176;9.874;2022-10-31T15:45:59;10.10;;;3.65;;
40176;SDS011;31511;46.176;9.874;2022-10-31T15:48:27;12.23;;;4.18;;
40176;SDS011;31511;46.176;9.874;2022-10-31T15:50:57;9.68;;;3.20;;
40176;SDS011;31511;46.176;9.874;2022-10-31T15:56:00;15.75;;;4.30;;
40176;SDS011;31511;46.176;9.874;2022-10-31T15:58:35;12.18;;;3.42;;
40176;SDS011;31511;46.176;9.874;2022-10-31T16:01:06;7.30;;;3.13;;
40176;SDS011;31511;46.176;9.874;2022-10-31T16:03:33;8.43;;;3.33;;
40176;SDS011;31511;46.176;9.874;2022-10-31T16:06:00;9.60;;;3.30;;
40176;SDS011;31511;46.176;9.874;2022-10-31T16:10:59;5.45;;;2.80;;
40176;SDS011;31511;46.176;9.874;2022-10-31T16:13:28;9.95;;;3.05;;
40176;SDS011;31511;46.176;9.874;2022-10-31T16:16:00;9.02;;;3.20;;
40176;SDS011;31511;46.176;9.874;2022-10-31T16:18:29;7.65;;;3.08;;
40176;SDS011;31511;46.176;9.874;2022-10-31T16:20:56;14.07;;;3.50;;
40176;SDS011;31511;46.176;9.874;2022-10-31T16:23:24;8.13;;;3.42;;
40176;SDS011;31511;46.176;9.874;2022-10-31T16:25:53;12.25;;;3.67;;
40176;SDS011;31511;46.176;9.874;2022-10-31T16:28:22;11.68;;;2.97;;
40176;SDS011;31511;46.176;9.874;2022-10-31T16:30:50;10.40;;;3.50;;
40176;SDS011;31511;46.176;9.874;2022-10-31T16:35:49;10.45;;;3.47;;
40176;SDS011;31511;46.176;9.874;2022-10-31T16:38:15;9.25;;;3.72;;
40176;SDS011;31511;46.176;9.874;2022-10-31T16:40:41;9.98;;;4.10;;
40176;SDS011;31511;46.176;9.874;2022-10-31T16:43:09;7.85;;;3.33;;
40176;SDS011;31511;46.176;9.874;2022-10-31T16:45:42;13.75;;;3.70;;
40176;SDS011;31511;46.176;9.874;2022-10-31T16:48:12;10.75;;;3.20;;
40176;SDS011;31511;46.176;9.874;2022-10-31T16:50:40;11.20;;;4.40;;
40176;SDS011;31511;46.176;9.874;2022-10-31T16:53:07;19.88;;;4.35;;
40176;SDS011;31511;46.176;9.874;2022-10-31T16:55:33;12.38;;;4.60;;
40176;SDS011;31511;46.176;9.874;2022-10-31T16:58:00;12.45;;;5.13;;
40176;SDS011;31511;46.176;9.874;2022-10-31T17:00:27;12.95;;;6.47;;
40176;SDS011;31511;46.176;9.874;2022-10-31T17:02:54;13.63;;;5.75;;
40176;SDS011;31511;46.176;9.874;2022-10-31T17:05:23;14.93;;;6.88;;
40176;SDS011;31511;46.176;9.874;2022-10-31T17:07:57;11.40;;;4.32;;
40176;SDS011;31511;46.176;9.874;2022-10-31T17:10:25;10.30;;;4.38;;
40176;SDS011;31511;46.176;9.874;2022-10-31T17:12:53;13.27;;;4.10;;
40176;SDS011;31511;46.176;9.874;2022-10-31T17:15:23;10.27;;;4.50;;
40176;SDS011;31511;46.176;9.874;2022-10-31T17:17:52;17.48;;;6.05;;
40176;SDS011;31511;46.176;9.874;2022-10-31T17:20:23;11.70;;;5.05;;
40176;SDS011;31511;46.176;9.874;2022-10-31T17:22:51;12.55;;;3.83;;
40176;SDS011;31511;46.176;9.874;2022-10-31T17:25:20;14.20;;;5.20;;